Etusivu
METAR-TAF:

METAR-TAF

Lentoasemat :

Tuscaloosa, Alabama, Yhdysvallat

Leveyspiiri: 33-12-43N, Pituuspiiri: 087-36-57W, korkeus merenpinnasta: 52 m

Tämänhetkinen sää

Tämä raportti tehtiin 18 minuuttia sitten, kello 20.01 UTC
Tuuli 5 kn koillisesta
Lämpötila 15°C
Kosteus 88%
Ilmanpaine 1020 hPa
Näkyvyys: 4.0 km
Pilvistä 500 ft:n korkeudessa
utua

METAR: KTCL 222001Z 04005KT 2 1/2SM BR OVC005 15/13 A3012 RMK AO2 T01500133

Aika: 14:19 (20:19 UTC)

Sääennuste

Tämä raportti tehtiin 40 minuuttia sitten, kello 19.39 UTC
Ennuste voimassa 22. päivästä klo 20 UTC - 23. päivään klo 18 UTC
Tuuli 8 kn pohjoisesta/koillisesta
Näkyvyys: 4.8 km
Pilvistä 500 ft:n korkeudessa
utua
From 23. päivästä klo 0200 UTC
Tuuli 5 kn kaakosta
Näkyvyys: 10 km
Pilvistä 1500 ft:n korkeudessa

TAF: KTCL 221939Z 2220/2318 02008KT 3SM BR OVC005 FM230200 13005KT P6SM OVC015

Säähavainnot ja -ennusteet yli 4000 lentoasemalta (METAR- ja TAF-raportit).

Käytössä olevat sääasemat on merkitty karttaan keltaisilla ja punaisilla pisteillä.

Aseta hiiri pisteen päälle nähdäksesi sääaseman nimen.

Klikkaa sitten nähdäksesi säähavainnot ja -ennusteet.

Kartan vaihtaminen: klikkaa mustalla rastilla varustettuja vihreitä pisteitä, niin voit zoomata sisään; viivalla varustettua vihreää pistettä, niin voit zoomata ulos tai vihreitä nuolia, niin pääset viereisille kartoille.


METAR-TAF: